Time;durP1;ratioP1;P1;durP2;ratioP2;P2;SDS_P1;SDS_P2;PMS_P1;PMS_P2;Temp;Humidity;BMP_temperature;BMP_pressure;BME280_temperature;BME280_humidity;BME280_pressure;Samples;Min_cycle;Max_cycle;Signal;HPM_P1;HPM_P2
2022/08/17 00:02:20;;;;;;;22.43;20.33;;;21.50;1.00;;;;;;6283438;28;20717;-57
2022/08/17 00:05:30;;;;;;;22.23;20.23;;;21.40;1.00;;;;;;6276391;28;20324;-56
2022/08/17 00:08:37;;;;;;;22.47;20.50;;;21.40;1.00;;;;;;6282884;28;20365;-56
2022/08/17 00:11:43;;;;;;;23.00;21.00;;;21.40;1.00;;;;;;6277620;28;20590;-55
2022/08/17 00:15:08;;;;;;;22.83;20.77;;;21.40;1.00;;;;;;6264659;28;20225;-55
2022/08/17 00:18:13;;;;;;;24.27;21.87;;;21.40;1.00;;;;;;6282163;28;20229;-55
2022/08/17 00:21:40;;;;;;;24.23;21.83;;;21.40;1.00;;;;;;6274985;28;20355;-55
2022/08/17 00:25:06;;;;;;;24.40;22.10;;;21.40;1.00;;;;;;6282826;28;20233;-56
2022/08/17 00:28:09;;;;;;;23.57;21.37;;;21.40;1.00;;;;;;6273504;28;20665;-56
2022/08/17 00:31:12;;;;;;;23.07;20.90;;;21.30;1.00;;;;;;6258720;28;20325;-57
2022/08/17 00:34:15;;;;;;;23.00;20.90;;;21.30;1.00;;;;;;6267959;28;20506;-56
2022/08/17 00:37:18;;;;;;;22.90;20.50;;;21.30;1.00;;;;;;6269208;28;20318;-56
2022/08/17 00:40:23;;;;;;;24.53;22.23;;;21.30;1.00;;;;;;6257480;28;20387;-57
2022/08/17 00:43:31;;;;;;;25.07;22.57;;;21.30;1.00;;;;;;6259324;28;20238;-53
2022/08/17 00:46:39;;;;;;;23.67;21.40;;;21.20;1.00;;;;;;6278466;28;20932;-55
2022/08/17 00:49:42;;;;;;;24.60;22.13;;;21.20;1.00;;;;;;6282626;28;20324;-57
2022/08/17 00:52:50;;;;;;;26.80;24.17;;;21.20;1.00;;;;;;6278471;28;20267;-55
2022/08/17 00:55:55;;;;;;;23.57;21.30;;;21.10;1.00;;;;;;6257897;28;20230;-56
2022/08/17 00:58:58;;;;;;;24.93;22.37;;;21.10;1.00;;;;;;6257519;28;20230;-55
2022/08/17 01:02:02;;;;;;;22.87;20.83;;;21.10;1.00;;;;;;6257003;28;20236;-55
2022/08/17 01:05:07;;;;;;;23.33;21.00;;;21.10;1.00;;;;;;6275973;28;20240;-56
2022/08/17 01:08:14;;;;;;;22.50;20.40;;;21.10;1.00;;;;;;6281421;28;20290;-55
2022/08/17 01:11:19;;;;;;;22.27;20.07;;;21.00;1.00;;;;;;6271920;28;20263;-56
2022/08/17 01:14:24;;;;;;;21.07;19.10;;;21.00;1.00;;;;;;6262348;28;20286;-55
2022/08/17 01:17:27;;;;;;;20.93;19.03;;;21.00;1.00;;;;;;6281944;28;20425;-57
2022/08/17 01:20:31;;;;;;;21.70;19.73;;;21.00;1.00;;;;;;6276292;28;20265;-56
2022/08/17 01:23:50;;;;;;;20.93;19.10;;;21.00;1.00;;;;;;6281659;28;20726;-55
2022/08/17 01:26:53;;;;;;;21.67;19.77;;;20.90;1.00;;;;;;6281402;28;20233;-57
2022/08/17 01:30:03;;;;;;;21.97;19.80;;;20.90;1.00;;;;;;6261129;28;20280;-56
2022/08/17 01:33:26;;;;;;;20.40;18.57;;;20.90;1.00;;;;;;6258232;28;20237;-56
2022/08/17 01:36:29;;;;;;;19.70;17.93;;;20.90;1.00;;;;;;6275963;28;20290;-56
2022/08/17 01:39:36;;;;;;;19.43;17.67;;;20.90;1.00;;;;;;6257760;28;20242;-56
2022/08/17 01:42:44;;;;;;;19.50;17.83;;;20.80;1.00;;;;;;6257677;28;20237;-55
2022/08/17 01:45:50;;;;;;;17.50;16.10;;;20.80;1.00;;;;;;6271181;28;20235;-56
2022/08/17 01:49:08;;;;;;;18.50;16.90;;;20.80;1.00;;;;;;6257020;28;20246;-56
2022/08/17 01:52:11;;;;;;;18.40;16.83;;;20.80;1.00;;;;;;6251707;28;20292;-55
2022/08/17 01:55:19;;;;;;;18.23;16.63;;;20.70;1.00;;;;;;6258559;28;20394;-57
2022/08/17 01:58:28;;;;;;;18.43;16.70;;;20.70;1.00;;;;;;6261208;28;20238;-56
2022/08/17 02:01:33;;;;;;;20.20;18.33;;;20.70;1.00;;;;;;6266079;28;20245;-56
2022/08/17 02:04:36;;;;;;;18.27;16.53;;;20.70;1.00;;;;;;6281087;28;20237;-56
2022/08/17 02:07:39;;;;;;;20.07;17.93;;;20.70;1.00;;;;;;6285301;28;20893;-56
2022/08/17 02:11:06;;;;;;;18.80;17.20;;;20.70;1.00;;;;;;6281914;28;20243;-55
2022/08/17 02:14:14;;;;;;;18.30;16.83;;;20.60;1.00;;;;;;6269256;28;20694;-57
2022/08/17 02:17:16;;;;;;;20.00;18.20;;;20.60;1.00;;;;;;6285064;28;20237;-56
2022/08/17 02:20:19;;;;;;;17.33;15.87;;;20.60;1.00;;;;;;6273271;28;20233;-56
2022/08/17 02:23:47;;;;;;;17.77;16.17;;;20.60;1.00;;;;;;6285570;28;20694;-56
2022/08/17 02:26:51;;;;;;;19.90;18.23;;;20.50;1.00;;;;;;6284791;28;20259;-57
2022/08/17 02:29:54;;;;;;;19.53;17.80;;;20.50;1.00;;;;;;6284811;28;20263;-56
2022/08/17 02:32:57;;;;;;;19.83;18.10;;;20.50;1.00;;;;;;6284542;28;20229;-57
2022/08/17 02:36:07;;;;;;;20.10;18.20;;;20.50;1.00;;;;;;6276183;28;20876;-57
2022/08/17 02:39:12;;;;;;;18.47;17.07;;;20.50;1.00;;;;;;6260123;28;20923;-57
2022/08/17 02:42:16;;;;;;;19.10;17.50;;;20.50;1.00;;;;;;6260895;28;20236;-57
2022/08/17 02:45:22;;;;;;;21.13;19.30;;;20.50;1.00;;;;;;6273801;28;20396;-57
2022/08/17 02:48:25;;;;;;;19.37;17.77;;;20.50;1.00;;;;;;6281653;28;20280;-56
2022/08/17 02:51:34;;;;;;;19.07;17.53;;;20.50;1.00;;;;;;6285468;28;20338;-56
2022/08/17 02:54:37;;;;;;;19.07;17.47;;;20.50;1.00;;;;;;6277713;28;20249;-56
2022/08/17 02:57:45;;;;;;;20.73;18.80;;;20.50;1.00;;;;;;6261145;28;20755;-56
2022/08/17 03:00:48;;;;;;;20.57;18.60;;;20.40;1.00;;;;;;6259979;28;20299;-56
2022/08/17 03:03:51;;;;;;;19.47;17.67;;;20.50;1.00;;;;;;6265666;28;20476;-56
2022/08/17 03:06:54;;;;;;;19.47;17.87;;;20.40;1.00;;;;;;6281415;28;20324;-57
2022/08/17 03:09:58;;;;;;;19.17;17.57;;;20.40;1.00;;;;;;6259901;28;20610;-57
2022/08/17 03:13:02;;;;;;;18.53;17.03;;;20.40;1.00;;;;;;6252658;28;20295;-55
2022/08/17 03:16:07;;;;;;;18.20;16.70;;;20.40;1.00;;;;;;6282074;28;20314;-55
2022/08/17 03:19:09;;;;;;;19.77;18.17;;;20.40;1.00;;;;;;6270450;28;20241;-56
2022/08/17 03:22:12;;;;;;;19.10;17.50;;;20.40;1.00;;;;;;6285000;28;20306;-56
2022/08/17 03:25:39;;;;;;;18.13;16.83;;;20.40;1.00;;;;;;6283839;28;20253;-56
2022/08/17 03:28:46;;;;;;;19.07;17.40;;;20.30;1.00;;;;;;6259407;28;20740;-56
2022/08/17 03:31:50;;;;;;;19.80;18.10;;;20.30;1.00;;;;;;6252748;28;20787;-55
2022/08/17 03:34:58;;;;;;;18.13;16.57;;;20.30;1.00;;;;;;6283452;28;20229;-56
2022/08/17 03:38:02;;;;;;;18.73;17.23;;;20.20;1.00;;;;;;6284126;28;20229;-55
2022/08/17 03:41:06;;;;;;;19.43;17.77;;;20.20;1.00;;;;;;6283333;28;20461;-54
2022/08/17 03:44:10;;;;;;;17.77;16.30;;;20.20;1.00;;;;;;6284002;28;20264;-55
2022/08/17 03:57:17;;;;;;;18.17;16.67;;;20.10;1.00;;;;;;6270777;28;20232;-57
2022/08/17 04:00:22;;;;;;;18.50;16.93;;;20.10;1.00;;;;;;6276099;28;20245;-56
2022/08/17 04:03:25;;;;;;;18.10;16.60;;;20.10;1.00;;;;;;6284537;28;20866;-56
2022/08/17 04:06:28;;;;;;;17.73;16.17;;;20.10;1.00;;;;;;6278349;28;20715;-56
2022/08/17 04:09:30;;;;;;;18.87;17.17;;;20.10;1.00;;;;;;6283753;28;20241;-60
2022/08/17 04:12:44;;;;;;;18.07;16.57;;;20.10;1.00;;;;;;6285126;28;20241;-56
2022/08/17 04:15:48;;;;;;;17.90;16.13;;;20.10;1.00;;;;;;6283285;28;20641;-55
2022/08/17 04:18:52;;;;;;;19.37;17.80;;;20.10;1.00;;;;;;6283000;28;20252;-59
2022/08/17 04:21:56;;;;;;;18.80;16.97;;;20.20;1.00;;;;;;6276537;28;20742;-56
2022/08/17 04:24:59;;;;;;;17.83;16.47;;;20.20;1.00;;;;;;6276771;28;20282;-56
2022/08/17 04:28:02;;;;;;;20.67;18.70;;;20.20;1.00;;;;;;6275374;28;20239;-55
2022/08/17 04:31:11;;;;;;;17.70;16.23;;;20.20;1.00;;;;;;6283004;28;20387;-54
2022/08/17 04:34:15;;;;;;;18.53;17.07;;;20.30;1.00;;;;;;6284176;28;20282;-56
2022/08/17 04:37:22;;;;;;;17.80;16.33;;;20.30;1.00;;;;;;6284098;28;20279;-57
2022/08/17 04:43:53;;;;;;;19.73;18.13;;;20.40;1.00;;;;;;6255467;28;20315;-56
2022/08/17 04:46:58;;;;;;;18.47;16.97;;;20.50;1.00;;;;;;6275758;28;20316;-56
2022/08/17 04:50:02;;;;;;;19.53;17.90;;;20.60;1.00;;;;;;6271353;28;20294;-57
2022/08/17 04:53:05;;;;;;;19.43;17.63;;;20.60;1.00;;;;;;6283829;28;20864;-56
2022/08/17 04:56:09;;;;;;;19.43;17.73;;;20.70;1.00;;;;;;6282900;28;20421;-57
2022/08/17 04:59:20;;;;;;;18.70;17.20;;;20.70;1.00;;;;;;6275890;28;20245;-56
2022/08/17 05:02:24;;;;;;;18.83;17.33;;;20.80;1.00;;;;;;6276892;28;20706;-57
2022/08/17 05:05:30;;;;;;;18.17;16.67;;;20.90;1.00;;;;;;6284236;28;20229;-57
2022/08/17 05:08:33;;;;;;;18.63;16.93;;;21.00;1.00;;;;;;6283036;28;20236;-57
2022/08/17 05:11:37;;;;;;;18.23;16.47;;;21.10;1.00;;;;;;6278417;28;20283;-56
2022/08/17 05:14:46;;;;;;;17.57;15.87;;;21.20;1.00;;;;;;6283395;28;20229;-56
2022/08/17 05:17:50;;;;;;;18.63;17.00;;;21.30;1.00;;;;;;6282616;28;20280;-55
2022/08/17 05:20:54;;;;;;;17.17;15.70;;;21.40;1.00;;;;;;6283388;28;20314;-55
2022/08/17 05:23:57;;;;;;;17.17;15.67;;;21.50;1.00;;;;;;6283456;28;20376;-57
2022/08/17 05:27:01;;;;;;;18.20;16.63;;;21.60;1.00;;;;;;6282112;28;20495;-55
2022/08/17 05:30:09;;;;;;;17.87;16.07;;;21.70;1.00;;;;;;6284772;28;20472;-56
2022/08/17 05:33:15;;;;;;;17.97;16.37;;;21.80;1.00;;;;;;6288251;28;20267;-56
2022/08/17 05:36:18;;;;;;;16.13;14.90;;;21.90;1.00;;;;;;6287608;28;20363;-56
2022/08/17 05:39:41;;;;;;;15.97;14.67;;;21.90;1.00;;;;;;6287171;28;20476;-57
2022/08/17 05:42:44;;;;;;;18.13;16.40;;;22.10;1.00;;;;;;6287997;28;20233;-57
2022/08/17 05:45:52;;;;;;;16.20;14.70;;;22.20;1.00;;;;;;6281923;28;20244;-56
2022/08/17 05:49:04;;;;;;;16.23;14.93;;;22.30;1.00;;;;;;6280183;28;20233;-57
2022/08/17 05:52:19;;;;;;;17.37;15.70;;;22.50;1.00;;;;;;6260397;28;20371;-60
2022/08/17 05:55:32;;;;;;;16.27;14.87;;;22.70;1.00;;;;;;6287382;28;20320;-57
2022/08/17 05:58:45;;;;;;;16.63;15.33;;;23.00;1.00;;;;;;6287562;28;20241;-58
2022/08/17 06:01:55;;;;;;;15.90;14.60;;;23.30;1.00;;;;;;6286198;28;20382;-54
2022/08/17 06:05:10;;;;;;;16.73;15.17;;;23.50;1.00;;;;;;6286401;28;20587;-57
2022/08/17 06:08:23;;;;;;;16.97;15.43;;;23.70;1.00;;;;;;6287837;28;20662;-56
2022/08/17 06:11:32;;;;;;;16.70;15.07;;;24.00;1.00;;;;;;6286100;28;20260;-55
2022/08/17 06:14:50;;;;;;;18.97;17.30;;;24.20;1.00;;;;;;6287018;28;21076;-56
2022/08/17 06:17:57;;;;;;;19.13;15.40;;;24.40;1.00;;;;;;6282293;28;20225;-57
2022/08/17 06:21:04;;;;;;;17.80;16.10;;;24.60;1.00;;;;;;6271794;28;20306;-55
2022/08/17 06:24:22;;;;;;;15.67;14.07;;;24.80;1.00;;;;;;6286533;28;20288;-56
2022/08/17 06:27:32;;;;;;;14.53;13.17;;;25.00;1.00;;;;;;6284387;28;20265;-56
2022/08/17 06:30:46;;;;;;;14.20;12.90;;;25.30;1.00;;;;;;6284826;28;20250;-54
2022/08/17 06:34:04;;;;;;;13.83;12.43;;;25.50;1.00;;;;;;6280109;28;20268;-57
2022/08/17 06:37:27;;;;;;;14.43;13.03;;;25.60;1.00;;;;;;6287242;28;20275;-56
2022/08/17 06:40:49;;;;;;;12.77;11.63;;;25.80;1.00;;;;;;6285158;28;20406;-56
2022/08/17 06:44:07;;;;;;;12.10;11.07;;;26.00;1.00;;;;;;6281107;28;20258;-57
2022/08/17 06:47:14;;;;;;;10.80;10.00;;;26.10;1.00;;;;;;6285854;28;20233;-57
2022/08/17 06:50:35;;;;;;;12.47;11.30;;;26.30;1.00;;;;;;6284876;28;20244;-57
2022/08/17 06:53:45;;;;;;;13.53;12.00;;;26.40;1.00;;;;;;6280225;28;20751;-57
2022/08/17 06:56:56;;;;;;;14.87;13.47;;;26.50;1.00;;;;;;6285081;28;20232;-57
2022/08/17 07:00:05;;;;;;;12.60;11.33;;;26.70;1.00;;;;;;6269815;28;20323;-58
2022/08/17 07:03:17;;;;;;;11.37;10.47;;;26.80;1.00;;;;;;6285475;28;20237;-56
2022/08/17 07:06:23;;;;;;;16.17;12.60;;;26.90;1.00;;;;;;6280173;28;20399;-56
2022/08/17 07:09:33;;;;;;;12.93;11.47;;;27.00;1.00;;;;;;6279846;28;20252;-56
2022/08/17 07:12:40;;;;;;;11.53;10.63;;;27.00;1.00;;;;;;6283315;28;20222;-56
2022/08/17 07:15:47;;;;;;;11.30;10.27;;;27.20;1.00;;;;;;6285135;28;20283;-56
2022/08/17 07:18:52;;;;;;;11.43;10.20;;;27.40;1.00;;;;;;6281508;28;20312;-56
2022/08/17 07:22:05;;;;;;;10.50;9.60;;;27.50;1.00;;;;;;6284754;28;20265;-57
2022/08/17 07:25:12;;;;;;;11.57;10.43;;;27.60;1.00;;;;;;6284928;28;20494;-57
2022/08/17 07:28:22;;;;;;;12.80;11.53;;;27.60;1.00;;;;;;6282815;28;20229;-58
2022/08/17 07:31:29;;;;;;;13.80;11.13;;;27.60;1.00;;;;;;6284563;28;20287;-57
2022/08/17 07:34:58;;;;;;;13.47;10.60;;;27.60;1.00;;;;;;6285594;28;20291;-56
2022/08/17 07:38:11;;;;;;;10.57;9.60;;;27.70;1.00;;;;;;6278171;28;20372;-57
2022/08/17 07:41:32;;;;;;;10.70;9.73;;;27.70;1.00;;;;;;6282072;28;20272;-57
2022/08/17 07:44:56;;;;;;;12.47;9.47;;;27.70;1.00;;;;;;6282789;28;20256;-57
2022/08/17 07:51:26;;;;;;;10.10;8.27;;;27.90;1.00;;;;;;6278431;28;20336;-58
2022/08/17 07:54:34;;;;;;;8.53;7.93;;;27.90;1.00;;;;;;6278267;28;20758;-57
2022/08/17 07:57:39;;;;;;;8.83;7.97;;;28.00;1.00;;;;;;6284157;28;20232;-53
2022/08/17 08:00:42;;;;;;;8.30;7.70;;;28.10;1.00;;;;;;6271785;28;20765;-58
2022/08/17 08:03:45;;;;;;;8.57;7.77;;;28.00;1.00;;;;;;6282583;28;20251;-58
2022/08/17 08:07:00;;;;;;;7.10;6.77;;;28.00;1.00;;;;;;6283074;28;20300;-56
2022/08/17 08:10:09;;;;;;;7.40;6.73;;;28.00;1.00;;;;;;6283879;28;20296;-58
2022/08/17 08:13:22;;;;;;;9.50;7.20;;;28.10;1.00;;;;;;6284271;28;20368;-57
2022/08/17 08:16:28;;;;;;;7.77;7.13;;;28.10;1.00;;;;;;6280093;28;20255;-57
2022/08/17 08:19:31;;;;;;;8.43;7.60;;;28.20;1.00;;;;;;6284401;28;20233;-57
2022/08/17 08:22:44;;;;;;;9.70;7.20;;;28.30;1.00;;;;;;6283310;28;20306;-57
2022/08/17 08:25:58;;;;;;;7.00;6.57;;;28.30;1.00;;;;;;6283207;28;20308;-57
2022/08/17 08:29:17;;;;;;;7.33;7.00;;;28.30;1.00;;;;;;6272971;28;20233;-55
2022/08/17 08:32:31;;;;;;;6.77;6.30;;;28.40;1.00;;;;;;6281872;28;20234;-59
2022/08/17 08:35:39;;;;;;;5.63;5.30;;;28.40;1.00;;;;;;6284385;28;20716;-57
2022/08/17 08:38:49;;;;;;;6.23;6.03;;;28.50;1.00;;;;;;6283546;28;20974;-55
2022/08/17 08:42:00;;;;;;;6.90;6.40;;;28.50;1.00;;;;;;6282475;28;20313;-57
2022/08/17 08:45:14;;;;;;;7.37;5.93;;;28.60;1.00;;;;;;6282598;28;20238;-57
2022/08/17 08:48:33;;;;;;;5.60;5.20;;;28.70;1.00;;;;;;6283563;28;20878;-58
2022/08/17 08:51:59;;;;;;;8.45;6.57;;;28.80;1.00;;;;;;6281862;28;20241;-58
2022/08/17 08:55:09;;;;;;;6.65;6.10;;;28.90;1.00;;;;;;6274160;28;20308;-57
2022/08/17 08:58:16;;;;;;;6.53;6.22;;;28.90;1.00;;;;;;6282857;28;20672;-57
2022/08/17 09:01:50;;;;;;;6.70;6.20;;;29.00;1.00;;;;;;6280825;28;20238;-58
2022/08/17 09:05:06;;;;;;;6.53;5.93;;;29.10;1.00;;;;;;6281238;28;20324;-59
2022/08/17 09:08:28;;;;;;;7.35;6.88;;;29.20;1.00;;;;;;6286657;28;20241;-57
2022/08/17 09:11:39;;;;;;;7.10;6.38;;;29.30;1.00;;;;;;6286806;28;20320;-57
2022/08/17 09:15:10;;;;;;;6.68;6.05;;;29.30;1.00;;;;;;6280325;28;20332;-58
2022/08/17 09:18:21;;;;;;;5.97;5.78;;;29.30;1.00;;;;;;6286119;28;20241;-58
2022/08/17 09:21:52;;;;;;;5.65;5.35;;;29.50;1.00;;;;;;6278228;28;20324;-56
2022/08/17 09:25:03;;;;;;;6.50;5.88;;;29.50;1.00;;;;;;6286963;28;20583;-57
2022/08/17 09:28:20;;;;;;;6.17;5.77;;;29.60;1.00;;;;;;6277731;28;20296;-57
2022/08/17 09:31:28;;;;;;;5.47;4.97;;;29.70;1.00;;;;;;6286653;28;20651;-56
2022/08/17 09:34:41;;;;;;;5.50;5.00;;;29.80;1.00;;;;;;6287525;28;20315;-56
2022/08/17 09:37:55;;;;;;;7.13;5.93;;;30.00;1.00;;;;;;6285011;28;20236;-56
2022/08/17 09:41:08;;;;;;;6.53;6.13;;;30.10;1.00;;;;;;6284222;28;20320;-56
2022/08/17 09:44:21;;;;;;;5.75;5.25;;;30.30;1.00;;;;;;6287385;28;20279;-57
2022/08/17 09:47:30;;;;;;;5.97;5.53;;;30.30;1.00;;;;;;6281991;28;20605;-57
2022/08/17 09:50:40;;;;;;;6.03;5.63;;;30.40;1.00;;;;;;6286128;28;20233;-58
2022/08/17 09:54:04;;;;;;;9.50;5.15;;;30.60;1.00;;;;;;6283955;28;20607;-56
2022/08/17 09:57:50;;;;;;;5.20;4.93;;;30.60;1.00;;;;;;6286416;28;20241;-56
2022/08/17 10:01:02;;;;;;;5.28;5.07;;;30.60;1.00;;;;;;6285636;28;20280;-57
2022/08/17 10:04:16;;;;;;;5.05;4.75;;;30.60;1.00;;;;;;6279265;28;20303;-57
2022/08/17 10:07:31;;;;;;;4.97;4.60;;;30.80;1.00;;;;;;6285574;28;20241;-57
2022/08/17 10:10:39;;;;;;;5.28;5.07;;;30.90;1.00;;;;;;6285610;28;20245;-58
2022/08/17 10:13:50;;;;;;;5.65;4.80;;;31.00;1.00;;;;;;6286577;28;20357;-57
2022/08/17 10:17:02;;;;;;;4.78;4.15;;;31.10;1.00;;;;;;6278922;28;20244;-56
2022/08/17 10:20:12;;;;;;;4.70;4.43;;;31.20;1.00;;;;;;6278838;28;20324;-58
2022/08/17 10:26:45;;;;;;;5.32;4.78;;;31.40;1.00;;;;;;6284344;28;20359;-58
2022/08/17 10:30:03;;;;;;;5.45;4.95;;;31.50;1.00;;;;;;6273248;28;20423;-58
2022/08/17 10:33:14;;;;;;;3.95;3.72;;;31.50;1.00;;;;;;6283492;28;20256;-57
2022/08/17 10:36:26;;;;;;;4.40;4.22;;;31.50;1.00;;;;;;6286377;28;20238;-56
2022/08/17 10:39:42;;;;;;;3.92;3.53;;;31.40;1.00;;;;;;6284774;28;20537;-58
2022/08/17 10:43:00;;;;;;;3.72;3.53;;;31.50;1.00;;;;;;6284500;28;20232;-57
2022/08/17 10:46:13;;;;;;;3.90;3.70;;;31.60;1.00;;;;;;6283965;28;20232;-58
2022/08/17 10:49:35;;;;;;;3.65;3.40;;;31.70;1.00;;;;;;6284099;28;20626;-58
2022/08/17 10:52:48;;;;;;;5.18;3.65;;;31.80;1.00;;;;;;6280089;28;20295;-57
2022/08/17 10:56:24;;;;;;;4.97;4.03;;;31.70;1.00;;;;;;6284650;28;20225;-58
2022/08/17 10:59:50;;;;;;;3.67;3.50;;;31.50;1.00;;;;;;6283241;28;20314;-58
2022/08/17 11:02:54;;;;;;;4.28;3.95;;;31.50;1.00;;;;;;6283881;28;20225;-57
2022/08/17 11:06:11;;;;;;;5.32;5.10;;;31.40;1.00;;;;;;6282767;28;20229;-58
2022/08/17 11:09:33;;;;;;;4.72;4.63;;;31.50;1.00;;;;;;6284332;28;20387;-57
2022/08/17 11:12:46;;;;;;;3.90;3.60;;;31.60;1.00;;;;;;6282988;28;20363;-57
2022/08/17 11:16:00;;;;;;;4.03;3.83;;;31.80;1.00;;;;;;6284139;28;20229;-58
2022/08/17 11:19:37;;;;;;;3.83;3.58;;;31.90;1.00;;;;;;6282451;28;20230;-57
2022/08/17 11:22:58;;;;;;;4.15;3.92;;;31.90;1.00;;;;;;6281983;28;20300;-57
2022/08/17 11:26:06;;;;;;;4.32;4.10;;;31.90;1.00;;;;;;6283454;28;20229;-56
2022/08/17 11:29:21;;;;;;;4.50;4.18;;;32.00;1.00;;;;;;6282371;28;20805;-57
2022/08/17 11:32:39;;;;;;;4.10;3.90;;;31.90;1.00;;;;;;6282084;28;20234;-57
2022/08/17 11:36:02;;;;;;;5.40;4.00;;;32.00;1.00;;;;;;6282574;28;20718;-57
2022/08/17 11:39:20;;;;;;;4.07;3.88;;;32.00;1.00;;;;;;6276288;28;20236;-57
2022/08/17 11:42:37;;;;;;;3.90;3.67;;;31.90;1.00;;;;;;6284439;28;20596;-57
2022/08/17 11:46:07;;;;;;;4.10;3.78;;;31.70;1.00;;;;;;6282562;28;20226;-56
2022/08/17 11:52:51;;;;;;;4.05;3.95;;;32.00;1.00;;;;;;6181285;28;20607;-57
2022/08/17 11:56:08;;;;;;;4.90;3.78;;;32.30;1.00;;;;;;6281828;28;20290;-57
2022/08/17 11:59:48;;;;;;;4.78;3.70;;;32.60;1.00;;;;;;6281035;28;20247;-56
2022/08/17 12:03:22;;;;;;;4.13;3.90;;;32.70;1.00;;;;;;6282734;28;20286;-55
2022/08/17 12:06:42;;;;;;;4.15;3.90;;;32.60;1.00;;;;;;6279341;28;20240;-57
2022/08/17 12:09:49;;;;;;;5.10;4.22;;;32.70;1.00;;;;;;6281588;28;20287;-57
2022/08/17 12:12:54;;;;;;;4.13;3.83;;;32.70;1.00;;;;;;6282700;28;20533;-57
2022/08/17 12:15:58;;;;;;;3.80;3.50;;;32.90;1.00;;;;;;6282305;28;20523;-56
2022/08/17 12:19:04;;;;;;;4.03;3.92;;;33.00;1.00;;;;;;6273007;28;20724;-57
2022/08/17 12:22:14;;;;;;;3.65;3.55;;;32.80;1.00;;;;;;6283937;28;20234;-56
2022/08/17 12:25:21;;;;;;;3.70;3.60;;;32.70;1.00;;;;;;6279004;28;20714;-56
2022/08/17 12:28:27;;;;;;;4.82;4.30;;;32.60;1.00;;;;;;6280347;28;20328;-56
2022/08/17 12:31:34;;;;;;;4.13;3.92;;;32.40;1.00;;;;;;6282791;28;20701;-57
2022/08/17 12:34:40;;;;;;;4.28;4.10;;;32.30;1.00;;;;;;6276216;28;20363;-57
2022/08/17 12:37:48;;;;;;;3.85;3.65;;;32.30;1.00;;;;;;6281453;28;22722;-56
2022/08/17 12:40:58;;;;;;;4.07;3.85;;;32.40;1.00;;;;;;6281655;28;20240;-56
2022/08/17 12:44:12;;;;;;;4.45;4.10;;;32.50;1.00;;;;;;6278319;28;20343;-57
2022/08/17 12:47:18;;;;;;;5.07;4.30;;;32.50;1.00;;;;;;6277224;28;20320;-56
2022/08/17 12:50:26;;;;;;;3.58;3.47;;;32.40;1.00;;;;;;6281773;28;20495;-57
2022/08/17 12:53:33;;;;;;;4.28;4.03;;;32.50;1.00;;;;;;6277781;28;20264;-57
2022/08/17 12:56:36;;;;;;;4.40;4.00;;;32.40;1.00;;;;;;6282756;28;20704;-57
2022/08/17 12:59:45;;;;;;;4.13;3.92;;;32.20;1.00;;;;;;6281011;28;20647;-53
2022/08/17 13:02:51;;;;;;;3.88;3.70;;;32.30;1.00;;;;;;6282175;28;20363;-59
2022/08/17 13:05:58;;;;;;;4.18;3.90;;;32.30;1.00;;;;;;6282625;28;20408;-57
2022/08/17 13:09:09;;;;;;;3.90;3.70;;;32.40;1.00;;;;;;6276419;28;20334;-56
2022/08/17 13:12:12;;;;;;;4.75;4.18;;;32.30;1.00;;;;;;6279664;28;20355;-56
2022/08/17 13:15:28;;;;;;;4.28;4.00;;;32.20;1.00;;;;;;6279828;28;20740;-56
2022/08/17 13:18:41;;;;;;;3.97;3.72;;;32.10;1.00;;;;;;6282147;28;20559;-58
2022/08/17 13:21:47;;;;;;;4.75;4.40;;;32.10;1.00;;;;;;6276148;28;21998;-57
2022/08/17 13:24:53;;;;;;;4.18;3.97;;;32.10;1.00;;;;;;6277733;28;20237;-57
2022/08/17 13:27:57;;;;;;;4.80;4.38;;;32.00;1.00;;;;;;6281724;28;20312;-57
2022/08/17 13:31:23;;;;;;;4.03;3.85;;;31.90;1.00;;;;;;6281395;28;20316;-56
2022/08/17 13:34:39;;;;;;;5.75;4.00;;;32.00;1.00;;;;;;6273847;28;20729;-56
2022/08/17 13:38:05;;;;;;;4.22;3.95;;;32.00;1.00;;;;;;6282093;28;20237;-57
2022/08/17 13:41:29;;;;;;;4.32;4.03;;;32.10;1.00;;;;;;6253756;28;20395;-55
2022/08/17 13:44:36;;;;;;;5.97;5.57;;;32.40;1.00;;;;;;6273808;28;20393;-56
2022/08/17 13:47:40;;;;;;;4.20;4.00;;;32.50;1.00;;;;;;6282032;28;20253;-56
2022/08/17 13:50:45;;;;;;;4.40;4.25;;;32.60;1.00;;;;;;6282941;28;20290;-56
2022/08/17 13:53:54;;;;;;;4.03;3.78;;;32.60;1.00;;;;;;6285382;28;20291;-55
2022/08/17 13:57:03;;;;;;;4.10;3.80;;;32.60;1.00;;;;;;6286181;28;20896;-55
2022/08/17 14:00:15;;;;;;;4.32;4.03;;;32.60;1.00;;;;;;6275084;28;20234;-56
2022/08/17 14:03:20;;;;;;;4.78;3.92;;;32.70;1.00;;;;;;6280740;28;20255;-58
2022/08/17 14:06:23;;;;;;;3.88;3.75;;;32.60;1.00;;;;;;6281748;28;20269;-57
2022/08/17 14:09:52;;;;;;;4.43;4.03;;;32.60;1.00;;;;;;6283152;28;20408;-57
2022/08/17 14:12:55;;;;;;;4.88;4.30;;;32.60;1.00;;;;;;6286753;28;20298;-57
2022/08/17 14:15:57;;;;;;;4.75;4.55;;;32.70;1.00;;;;;;6285719;28;20365;-57
2022/08/17 14:19:00;;;;;;;4.95;4.50;;;32.80;1.00;;;;;;6285810;28;20300;-57
2022/08/17 14:22:04;;;;;;;4.53;4.22;;;32.80;1.00;;;;;;6280851;28;20726;-57
2022/08/17 14:25:12;;;;;;;4.13;3.92;;;32.60;1.00;;;;;;6286660;28;20561;-57
2022/08/17 14:28:14;;;;;;;4.25;4.05;;;32.50;1.00;;;;;;6286214;28;20282;-56
2022/08/17 14:31:18;;;;;;;3.92;3.88;;;32.30;1.00;;;;;;6281809;28;20256;-57
2022/08/17 14:34:21;;;;;;;3.85;3.60;;;32.30;1.00;;;;;;6286020;28;20628;-56
2022/08/17 14:37:26;;;;;;;4.13;4.03;;;32.40;1.00;;;;;;6285674;28;20236;-56
2022/08/17 14:40:32;;;;;;;3.92;3.83;;;32.50;1.00;;;;;;6284817;28;20265;-56
2022/08/17 14:43:35;;;;;;;4.15;4.03;;;32.60;1.00;;;;;;6286333;28;20586;-57
2022/08/17 14:46:38;;;;;;;3.83;3.80;;;32.80;1.00;;;;;;6282215;28;20449;-56
2022/08/17 14:49:41;;;;;;;4.90;4.70;;;33.00;1.00;;;;;;6284708;28;20233;-56
2022/08/17 14:52:43;;;;;;;4.45;4.07;;;32.90;1.00;;;;;;6286008;28;20308;-56
2022/08/17 14:55:49;;;;;;;4.25;4.05;;;32.80;1.00;;;;;;6284739;28;20328;-56
2022/08/17 14:58:52;;;;;;;4.63;4.43;;;32.80;1.00;;;;;;6277366;28;20229;-56
2022/08/17 15:01:55;;;;;;;4.18;4.00;;;32.60;1.00;;;;;;6284261;28;20313;-56
2022/08/17 15:05:00;;;;;;;4.20;4.07;;;32.50;1.00;;;;;;6284986;28;20236;-56
2022/08/17 15:08:04;;;;;;;4.00;3.90;;;32.30;1.00;;;;;;6281479;28;20340;-55
2022/08/17 15:11:10;;;;;;;4.45;4.15;;;32.20;1.00;;;;;;6284083;28;20310;-56
2022/08/17 15:14:16;;;;;;;3.95;3.75;;;32.20;1.00;;;;;;6283013;28;20240;-56
2022/08/17 15:17:19;;;;;;;4.28;4.07;;;32.00;1.00;;;;;;6283421;28;20372;-55
2022/08/17 15:20:26;;;;;;;4.38;4.03;;;32.00;1.00;;;;;;6284135;28;20246;-55
2022/08/17 15:23:28;;;;;;;4.60;4.38;;;32.00;1.00;;;;;;6282057;28;20260;-56
2022/08/17 15:26:33;;;;;;;4.43;4.22;;;32.10;1.00;;;;;;6284413;28;20358;-56
2022/08/17 15:29:36;;;;;;;4.28;4.18;;;32.10;1.00;;;;;;6283808;28;20282;-56
2022/08/17 15:32:41;;;;;;;3.80;3.70;;;32.10;1.00;;;;;;6277343;28;20234;-56
2022/08/17 15:35:58;;;;;;;5.07;4.10;;;32.20;1.00;;;;;;6283326;28;20237;-56
2022/08/17 15:39:01;;;;;;;4.07;3.95;;;32.30;1.00;;;;;;6283141;28;20263;-57
2022/08/17 15:42:06;;;;;;;5.60;4.40;;;32.30;1.00;;;;;;6281702;28;20320;-57
2022/08/17 15:45:12;;;;;;;4.95;4.57;;;32.20;1.00;;;;;;6283169;28;20229;-56
2022/08/17 15:48:17;;;;;;;4.93;4.60;;;32.10;1.00;;;;;;6283052;28;20614;-56
2022/08/17 15:51:22;;;;;;;4.38;4.07;;;32.00;1.00;;;;;;6280512;28;20717;-55
2022/08/17 15:54:25;;;;;;;4.50;4.20;;;32.00;1.00;;;;;;6283370;28;20257;-56
2022/08/17 15:57:37;;;;;;;4.25;4.13;;;32.10;1.00;;;;;;6283513;28;20240;-56
2022/08/17 16:00:41;;;;;;;4.50;4.13;;;32.20;1.00;;;;;;6281301;28;20244;-56
2022/08/17 16:04:04;;;;;;;4.57;4.32;;;32.20;1.00;;;;;;6278806;28;20233;-55
2022/08/17 16:07:27;;;;;;;4.60;4.32;;;32.30;1.00;;;;;;6281676;28;20226;-56
2022/08/17 16:10:30;;;;;;;5.00;4.80;;;32.20;1.00;;;;;;6283138;28;20234;-56
2022/08/17 16:13:40;;;;;;;4.53;4.20;;;32.20;1.00;;;;;;6283216;28;20284;-56
2022/08/17 16:16:43;;;;;;;5.60;4.10;;;32.10;1.00;;;;;;6281344;28;20828;-56
2022/08/17 16:19:46;;;;;;;4.97;4.57;;;32.10;1.00;;;;;;6282921;28;20335;-57
2022/08/17 16:22:50;;;;;;;4.57;4.28;;;32.00;1.00;;;;;;6276633;28;20279;-57
2022/08/17 16:25:53;;;;;;;4.38;4.18;;;31.90;1.00;;;;;;6278667;28;20294;-56
2022/08/17 16:28:59;;;;;;;4.43;4.28;;;31.90;1.00;;;;;;6282243;28;20322;-57
2022/08/17 16:32:09;;;;;;;4.43;4.22;;;31.90;1.00;;;;;;6282596;28;20233;-57
2022/08/17 16:35:16;;;;;;;4.53;4.30;;;31.80;1.00;;;;;;6278895;28;20243;-55
2022/08/17 16:38:19;;;;;;;4.47;4.38;;;31.70;1.00;;;;;;6282514;28;20724;-56
2022/08/17 16:41:43;;;;;;;4.97;4.68;;;31.70;1.00;;;;;;6282894;28;20332;-57
2022/08/17 16:44:47;;;;;;;4.65;4.35;;;31.60;1.00;;;;;;6272438;28;20313;-56
2022/08/17 16:47:51;;;;;;;5.18;4.90;;;31.50;1.00;;;;;;6281084;28;20234;-56
2022/08/17 16:50:54;;;;;;;4.53;4.22;;;31.50;1.00;;;;;;6282797;28;20328;-56
2022/08/17 16:54:07;;;;;;;4.88;4.57;;;31.40;1.00;;;;;;6278006;28;20724;-57